TimeEST,TemperatureF,Dew PointF,Humidity,Sea Level PressureIn,VisibilityMPH,Wind Direction,Wind SpeedMPH,Gust SpeedMPH,PrecipitationIn,Events,Conditions,WindDirDegrees,DateUTC
12:53 AM,23.0,10.9,60,29.68,10.0,Calm,Calm,-,N/A,,Overcast,0,2013-02-04 05:53:00
1:53 AM,21.9,10.9,63,29.68,10.0,Variable,3.5,-,N/A,,Overcast,0,2013-02-04 06:53:00
2:53 AM,21.0,10.9,65,29.68,10.0,Variable,4.6,-,N/A,,Overcast,0,2013-02-04 07:53:00
3:53 AM,21.0,10.0,63,29.67,10.0,Variable,3.5,-,N/A,,Overcast,0,2013-02-04 08:53:00
5:53 AM,18.0,9.0,68,29.66,10.0,West,3.5,-,N/A,,Clear,270,2013-02-04 10:53:00
6:53 AM,18.0,9.0,68,29.66,10.0,Variable,3.5,-,N/A,,Clear,0,2013-02-04 11:53:00
7:53 AM,21.0,9.0,60,29.67,10.0,West,4.6,-,N/A,,Clear,280,2013-02-04 12:53:00
8:53 AM,24.1,9.0,53,29.67,10.0,WNW,6.9,-,N/A,,Clear,290,2013-02-04 13:53:00
9:53 AM,26.1,8.1,47,29.66,10.0,Variable,5.8,16.1,N/A,,Clear,0,2013-02-04 14:53:00
10:53 AM,28.0,5.0,38,29.66,10.0,West,13.8,26.5,N/A,,Scattered Clouds,270,2013-02-04 15:53:00
11:53 AM,27.0,3.0,36,29.65,10.0,WNW,12.7,29.9,N/A,,Clear,290,2013-02-04 16:53:00
12:53 PM,28.0,-0.0,30,29.65,10.0,NW,8.1,26.5,N/A,,Partly Cloudy,310,2013-02-04 17:53:00
1:53 PM,28.0,1.0,31,29.66,10.0,Variable,6.9,17.3,N/A,,Scattered Clouds,0,2013-02-04 18:53:00
2:53 PM,27.0,-0.0,31,29.67,10.0,West,10.4,19.6,N/A,,Partly Cloudy,280,2013-02-04 19:53:00
3:53 PM,27.0,1.0,33,29.68,10.0,West,8.1,17.3,N/A,,Overcast,270,2013-02-04 20:53:00
4:53 PM,25.0,-0.0,34,29.70,10.0,Variable,4.6,-,N/A,,Clear,0,2013-02-04 21:53:00
5:53 PM,23.0,-2.0,34,29.72,10.0,Variable,4.6,-,N/A,,Clear,0,2013-02-04 22:53:00
6:53 PM,21.0,-2.0,36,29.75,10.0,Calm,Calm,-,N/A,,Clear,0,2013-02-04 23:53:00
7:53 PM,19.0,-0.0,43,29.77,10.0,Calm,Calm,-,N/A,,Clear,0,2013-02-05 00:53:00
8:53 PM,19.0,-0.9,42,29.81,10.0,Variable,4.6,-,N/A,,Clear,0,2013-02-05 01:53:00
9:53 PM,18.0,-4.0,38,29.83,10.0,Variable,6.9,-,N/A,,Clear,0,2013-02-05 02:53:00
10:53 PM,17.1,-7.1,34,29.86,10.0,Variable,6.9,-,N/A,,Clear,0,2013-02-05 03:53:00
11:53 PM,16.0,-8.0,34,29.88,10.0,Calm,Calm,-,N/A,,Clear,0,2013-02-05 04:53:00